Terminal Aerodrome Forecast
Issued by NWS

Home | Current Version | Previous Version | Graphics & Text | Print | Product List | Glossary On
Versions: 1 2 3 4 5 6 7 8 9 10 11 12 13 14 15
000
FTUS43 KICT 160520
TAFCNU
TAF
KCNU 160520Z 1606/1706 36019G26KT P6SM OVC090
     FM161500 36013G20KT P6SM SCT200
     FM162000 03009KT P6SM FEW250
     FM162300 08008KT P6SM SCT250
     FM170200 11004KT P6SM SCT250=

USA.gov is the U.S. government's official web portal to all federal, state and local government web resources and services.